createdAt,value
2024-04-10T00:18:23.621Z,19.3
2024-04-10T00:38:23.350Z,19.3
2024-04-10T00:58:23.670Z,19.3
2024-04-10T01:18:23.796Z,19.3
2024-04-10T01:38:23.647Z,19.3
2024-04-10T01:58:23.266Z,19.3
2024-04-10T02:18:23.552Z,19.3
2024-04-10T02:38:23.429Z,19.2
2024-04-10T02:58:23.640Z,19.2
2024-04-10T03:18:23.333Z,19.2
2024-04-10T03:38:23.150Z,19.2
2024-04-10T03:58:23.295Z,19.2
2024-04-10T04:18:23.441Z,19.1
2024-04-10T04:38:23.520Z,19.1
2024-04-10T04:58:23.351Z,19.1
2024-04-10T05:18:23.353Z,19.1
2024-04-10T05:38:23.249Z,19.1
2024-04-10T05:58:23.299Z,19.1
2024-04-10T06:18:23.301Z,19.2
2024-04-10T06:38:22.889Z,19.3
2024-04-10T06:58:22.970Z,19.4
2024-04-10T07:18:22.922Z,19.5
2024-04-10T07:38:22.844Z,19.6
2024-04-10T07:58:22.790Z,19.8
2024-04-10T08:18:22.958Z,19.8
2024-04-10T08:38:22.769Z,19.9
2024-04-10T08:58:23.025Z,20.0
2024-04-10T09:18:22.766Z,20.1
2024-04-10T09:38:22.824Z,20.2
2024-04-10T09:58:22.826Z,20.2
2024-04-10T10:18:22.670Z,20.2
2024-04-10T10:38:22.923Z,20.2
2024-04-10T10:58:22.601Z,20.3
2024-04-10T11:18:22.573Z,20.3
2024-04-10T11:38:22.587Z,20.1
2024-04-10T11:58:22.559Z,20.1
2024-04-10T12:18:22.534Z,20.1
2024-04-10T12:38:22.697Z,20.1
2024-04-10T12:58:22.474Z,20.1
2024-04-10T13:18:22.469Z,20.2
2024-04-10T13:38:22.382Z,20.2
2024-04-10T13:58:22.531Z,20.2
2024-04-10T14:18:22.434Z,20.1
2024-04-10T14:38:22.364Z,20.1
2024-04-10T14:58:22.548Z,20.1
2024-04-10T15:18:22.251Z,20.0
2024-04-10T15:38:22.215Z,19.9
2024-04-10T15:58:22.214Z,19.9
2024-04-10T16:18:22.232Z,19.8
2024-04-10T16:38:22.241Z,19.8
2024-04-10T16:58:22.159Z,19.7
2024-04-10T17:18:22.099Z,19.6
2024-04-10T17:38:22.057Z,19.6
2024-04-10T17:58:22.053Z,19.5
2024-04-10T18:18:22.046Z,19.5
2024-04-10T18:38:22.018Z,19.5
2024-04-10T18:58:22.123Z,19.4
2024-04-10T19:18:21.962Z,19.4
2024-04-10T19:38:21.961Z,19.4
2024-04-10T19:58:22.099Z,19.4
2024-04-10T20:18:21.879Z,19.4
2024-04-10T20:38:21.956Z,19.4
2024-04-10T20:58:21.946Z,19.3
2024-04-10T21:18:21.885Z,19.3
2024-04-10T21:38:21.777Z,19.3
2024-04-10T21:58:21.731Z,19.3
2024-04-10T22:18:21.739Z,19.3
2024-04-10T22:38:21.713Z,19.2
2024-04-10T22:58:21.669Z,19.2
2024-04-10T23:18:21.623Z,19.2
2024-04-10T23:38:21.601Z,19.2
2024-04-10T23:58:21.605Z,19.2
